| time (UTC) | temp F | wind direction | speed knots | gust knots | rain 1hr in | rain 24hr in | rain mn in | humidity % | barometer mb |
| 20260503004538 | 51 | 134 | 0.0 | 1.7 | 0.00 | 0.00 | 0.00 | 50 | 1006.8 |
| 20260503003038 | 51 | 134 | 0.0 | 3.5 | 0.00 | 0.00 | 0.00 | 48 | 1006.9 |
| 20260503001532 | 52 | 134 | 0.0 | 0.9 | 0.00 | 0.00 | 0.00 | 48 | 1006.9 |
| 20260503000030 | 53 | 134 | 0.0 | 1.7 | 0.00 | 0.00 | 0.00 | 42 | 1007.2 |
| 20260502234534 | 54 | 134 | 0.0 | 1.7 | 0.00 | 0.00 | 0.00 | 39 | 1007.3 |
| 20260502233029 | 57 | 134 | 0.0 | 2.6 | 0.00 | 0.00 | 0.00 | 38 | 1007.5 |
| 20260502231528 | 59 | 134 | 0.9 | 2.6 | 0.00 | 0.00 | 0.00 | 34 | 1007.6 |
| 20260502230026 | 60 | 134 | 0.0 | 3.5 | 0.00 | 0.00 | 0.00 | 29 | 1007.7 |
| 20260502224525 | 61 | 134 | 0.0 | 2.6 | 0.00 | 0.00 | 0.00 | 26 | 1007.7 |
| 20260502223023 | 62 | 135 | 0.0 | 2.6 | 0.00 | 0.00 | 0.00 | 27 | 1008.1 |
| 20260502221521 | 60 | 134 | 0.0 | 3.5 | 0.00 | 0.00 | 0.00 | 27 | 1008.1 |
| 20260502220022 | 58 | 134 | 0.0 | 0.9 | 0.00 | 0.00 | 0.00 | 27 | 1008.4 |
| 20260502214519 | 59 | 135 | 0.9 | 2.6 | 0.00 | 0.00 | 0.00 | 25 | 1008.4 |
| 20260502213033 | 60 | 135 | 0.0 | 3.5 | 0.00 | 0.00 | 0.00 | 24 | 1008.7 |
| 20260502211519 | 62 | 134 | 0.9 | 4.3 | 0.00 | 0.00 | 0.00 | 22 | 1009.1 |
| 20260502210014 | 62 | 133 | 1.7 | 4.3 | 0.00 | 0.00 | 0.00 | 21 | 1009.3 |
| 20260502204512 | 62 | 134 | 2.6 | 4.3 | 0.00 | 0.00 | 0.00 | 24 | 1009.6 |
| 20260502203009 | 61 | 135 | 0.9 | 4.3 | 0.00 | 0.00 | 0.00 | 22 | 1009.9 |
| 20260502201522 | 63 | 133 | 1.7 | 6.1 | 0.00 | 0.00 | 0.00 | 22 | 1010.2 |
| 20260502200005 | 63 | 134 | 2.6 | 7.8 | 0.00 | 0.00 | 0.00 | 24 | 1010.5 |
| 20260502194503 | 63 | 140 | 3.5 | 7.8 | 0.00 | 0.00 | 0.00 | 23 | 1010.8 |
| 20260502193119 | 63 | 140 | 2.6 | 7.0 | 0.00 | 0.00 | 0.00 | 25 | 1011.2 |
| 20260502191557 | 62 | 136 | 3.5 | 7.8 | 0.00 | 0.00 | 0.00 | 29 | 1011.5 |
| 20260502190054 | 61 | 132 | 1.7 | 8.7 | 0.00 | 0.00 | 0.00 | 31 | 1011.7 |
| 20260502184601 | 61 | 132 | 1.7 | 7.0 | 0.00 | 0.00 | 0.00 | 31 | 1012.0 |
| 20260502183052 | 61 | 140 | 3.5 | 7.8 | 0.00 | 0.00 | 0.00 | 33 | 1012.2 |
| 20260502181550 | 62 | 134 | 2.6 | 6.1 | 0.00 | 0.00 | 0.00 | 35 | 1012.6 |
| 20260502163021 | 51 | 142 | 1.7 | 4.3 | 0.00 | 0.00 | 0.00 | 66 | 1014.4 |
| 20260502161515 | 48 | 147 | 1.7 | 4.3 | 0.00 | 0.00 | 0.00 | 72 | 1014.7 |
| 20260502151503 | 45 | 127 | 2.6 | 6.1 | 0.00 | 0.00 | 0.00 | 77 | 1015.7 |
| 20260502123027 | 31 | 115 | 0.0 | 0.0 | 0.00 | 0.00 | 0.00 | 100 | 1016.6 |
| 20260502121530 | 29 | 114 | 0.0 | 0.0 | 0.00 | 0.00 | 0.00 | 100 | 1016.6 |
| 20260502114527 | 27 | 114 | 0.0 | 0.0 | 0.00 | 0.00 | 0.00 | 100 | 1016.8 |
| 20260502113027 | 26 | 114 | 0.0 | 0.0 | 0.00 | 0.00 | 0.00 | 100 | 1016.7 |
| 20260502111523 | 26 | 115 | 0.0 | 1.7 | 0.00 | 0.00 | 0.00 | 100 | 1016.7 |
| 20260502110021 | 26 | 114 | 0.0 | 0.0 | 0.00 | 0.00 | 0.00 | 100 | 1016.7 |
| 20260502104526 | 26 | 115 | 0.0 | 0.0 | 0.00 | 0.00 | 0.00 | 100 | 1016.6 |
| 20260502103020 | 26 | 114 | 0.0 | 0.0 | 0.00 | 0.00 | 0.00 | 100 | 1016.7 |
| 20260502101518 | 26 | 114 | 0.0 | 0.0 | 0.00 | 0.00 | 0.00 | 100 | 1016.7 |
| 20260502091518 | 27 | 115 | 0.0 | 0.0 | 0.00 | 0.00 | 0.00 | 100 | 1016.6 |
| 20260502071501 | 28 | 114 | 0.9 | 1.7 | 0.00 | 0.00 | 0.00 | 100 | 1017.4 |
| 20260502070117 | 29 | 114 | 0.0 | 0.0 | 0.00 | 0.00 | 0.00 | 100 | 1017.5 |
| 20260502064559 | 29 | 115 | 0.0 | 0.0 | 0.00 | 0.00 | 0.00 | 100 | 1017.6 |
| 20260502063118 | 29 | 115 | 0.0 | 0.0 | 0.00 | 0.00 | 0.00 | 100 | 1017.6 |
| 20260502061557 | 29 | 115 | 0.0 | 0.0 | 0.00 | 0.00 | 0.00 | 100 | 1017.6 |
| 20260502060057 | 29 | 115 | 0.0 | 0.0 | 0.00 | 0.00 | 0.00 | 100 | 1017.6 |
| 20260502054606 | 29 | 114 | 0.0 | 0.0 | 0.00 | 0.00 | 0.00 | 100 | 1017.7 |
| 20260502053053 | 30 | 114 | 0.0 | 0.0 | 0.00 | 0.00 | 0.00 | 100 | 1017.6 |
| 20260502051552 | 30 | 114 | 0.0 | 1.7 | 0.00 | 0.00 | 0.00 | 100 | 1017.7 |
| 20260502050053 | 30 | 115 | 0.9 | 2.6 | 0.00 | 0.00 | 0.00 | 100 | 1017.9 |
| 20260502044548 | 30 | 114 | 0.9 | 1.7 | 0.00 | 0.00 | 0.00 | 95 | 1017.9 |
| 20260502043103 | 30 | 115 | 1.7 | 2.6 | 0.00 | 0.00 | 0.00 | 85 | 1017.8 |
| 20260502041610 | 31 | 114 | 0.9 | 1.7 | 0.00 | 0.00 | 0.00 | 80 | 1017.7 |
| 20260502040054 | 31 | 115 | 0.0 | 1.7 | 0.00 | 0.00 | 0.00 | 78 | 1017.8 |
| 20260502034548 | 31 | 114 | 0.0 | 1.7 | 0.00 | 0.00 | 0.00 | 76 | 1017.7 |
| 20260502033046 | 32 | 115 | 0.9 | 2.6 | 0.00 | 0.00 | 0.00 | 73 | 1017.9 |
| 20260502031545 | 32 | 114 | 0.0 | 1.7 | 0.00 | 0.00 | 0.00 | 71 | 1018.0 |
| 20260502030101 | 33 | 114 | 0.9 | 1.7 | 0.00 | 0.00 | 0.00 | 70 | 1017.8 |
| 20260502024554 | 34 | 114 | 0.9 | 1.7 | 0.00 | 0.00 | 0.00 | 70 | 1017.7 |
| 20260502023105 | 35 | 114 | 0.9 | 2.6 | 0.00 | 0.00 | 0.00 | 68 | 1017.7 |
| 20260502021544 | 36 | 114 | 0.9 | 1.7 | 0.00 | 0.00 | 0.00 | 68 | 1017.7 |
| 20260502020043 | 37 | 114 | 0.0 | 0.0 | 0.00 | 0.00 | 0.00 | 66 | 1017.5 |
| 20260502014543 | 38 | 115 | 0.0 | 0.0 | 0.00 | 0.00 | 0.00 | 65 | 1017.5 |
| 20260502013052 | 39 | 114 | 0.0 | 0.0 | 0.00 | 0.00 | 0.00 | 63 | 1017.3 |
| 20260502011600 | 41 | 115 | 0.0 | 0.0 | 0.00 | 0.00 | 0.00 | 61 | 1017.3 |
| 20260502010041 | 43 | 115 | 0.0 | 0.0 | 0.00 | 0.00 | 0.00 | 61 | 1017.2 |